createdAt,value
2023-04-10T00:02:26.394Z,5.94
2023-04-10T00:08:46.211Z,5.85
2023-04-10T00:15:09.276Z,5.77
2023-04-10T00:21:29.218Z,5.71
2023-04-10T00:27:52.186Z,5.64
2023-04-10T00:34:12.223Z,5.6
2023-04-10T00:40:35.282Z,5.54
2023-04-10T00:46:55.186Z,5.55
2023-04-10T00:53:18.261Z,5.55
2023-04-10T00:59:38.159Z,5.54
2023-04-10T01:06:01.262Z,5.57
2023-04-10T01:12:21.211Z,5.55
2023-04-10T01:18:44.222Z,5.51
2023-04-10T01:25:04.291Z,5.44
2023-04-10T01:31:27.390Z,5.39
2023-04-10T01:37:47.235Z,5.35
2023-04-10T01:44:10.192Z,5.32
2023-04-10T01:50:30.235Z,5.32
2023-04-10T01:56:53.176Z,5.31
2023-04-10T02:03:13.391Z,5.29
2023-04-10T02:09:36.315Z,5.27
2023-04-10T02:15:56.198Z,5.27
2023-04-10T02:22:19.238Z,5.32
2023-04-10T02:28:39.206Z,5.32
2023-04-10T02:35:02.232Z,5.31
2023-04-10T02:41:22.256Z,5.27
2023-04-10T02:47:45.322Z,5.25
2023-04-10T02:54:05.216Z,5.26
2023-04-10T03:00:28.295Z,5.31
2023-04-10T03:06:48.206Z,5.36
2023-04-10T03:30:30.188Z,5.31
2023-04-10T03:36:53.176Z,5.34
2023-04-10T03:43:13.283Z,5.37
2023-04-10T03:49:36.251Z,5.39
2023-04-10T03:55:56.279Z,5.36
2023-04-10T04:02:19.293Z,5.3
2023-04-10T04:08:39.257Z,5.24
2023-04-10T04:15:02.208Z,5.16
2023-04-10T04:21:22.212Z,5.07
2023-04-10T04:27:45.255Z,4.95
2023-04-10T04:34:05.321Z,4.91
2023-04-10T04:40:28.222Z,4.88
2023-04-10T04:46:48.278Z,4.89
2023-04-10T04:53:11.249Z,4.91
2023-04-10T04:59:31.232Z,4.86
2023-04-10T05:05:54.203Z,4.9
2023-04-10T05:12:14.170Z,4.94
2023-04-10T05:18:37.259Z,4.96
2023-04-10T05:24:57.226Z,4.99
2023-04-10T05:31:20.306Z,5.06
2023-04-10T05:37:40.189Z,5.17
2023-04-10T05:44:03.276Z,5.29
2023-04-10T05:50:23.312Z,5.43
2023-04-10T05:56:46.161Z,5.61
2023-04-10T06:03:06.339Z,5.84
2023-04-10T06:09:29.253Z,6.1
2023-04-10T06:15:49.206Z,6.35
2023-04-10T06:22:12.207Z,6.56
2023-04-10T06:28:32.279Z,6.79
2023-04-10T06:34:55.180Z,7.01
2023-04-10T06:41:15.235Z,7.23
2023-04-10T06:47:38.198Z,7.53
2023-04-10T06:53:58.303Z,7.89
2023-04-10T07:00:21.285Z,8.23
2023-04-10T07:06:41.218Z,8.58
2023-04-10T07:13:04.239Z,8.92
2023-04-10T07:19:24.195Z,9.25
2023-04-10T07:25:47.228Z,9.62
2023-04-10T07:32:07.249Z,10.04
2023-04-10T07:38:30.182Z,10.47
2023-04-10T07:44:50.195Z,10.92
2023-04-10T07:51:13.172Z,11.31
2023-04-10T07:57:33.303Z,11.63
2023-04-10T08:03:56.443Z,11.77
2023-04-10T08:10:16.145Z,11.85
2023-04-10T08:16:39.283Z,11.98
2023-04-10T08:23:06.236Z,12.19
2023-04-10T08:52:28.691Z,13.58
2023-04-10T08:58:48.154Z,13.87
2023-04-10T09:05:11.256Z,14.07
2023-04-10T09:11:31.203Z,14.32
2023-04-10T09:17:54.179Z,14.43
2023-04-10T09:24:14.184Z,14.56
2023-04-10T09:30:37.215Z,14.74
2023-04-10T09:36:57.196Z,14.78
2023-04-10T09:43:20.167Z,15.09
2023-04-10T09:49:40.185Z,15.25
2023-04-10T09:56:03.174Z,15.42
2023-04-10T10:02:23.264Z,15.53
2023-04-10T10:08:46.187Z,15.71
2023-04-10T10:15:06.153Z,16
2023-04-10T10:21:29.176Z,16.17
2023-04-10T10:27:49.207Z,16.28
2023-04-10T10:34:12.159Z,16.57
2023-04-10T10:40:32.156Z,16.68
2023-04-10T10:46:55.203Z,16.86
2023-04-10T10:53:15.174Z,17.28
2023-04-10T10:59:38.176Z,17.57
2023-04-10T11:05:58.187Z,17.83
2023-04-10T11:12:21.173Z,18.07
2023-04-10T11:18:41.227Z,18.41
2023-04-10T11:25:04.267Z,18.49
2023-04-10T11:31:24.186Z,18.55
2023-04-10T11:37:47.181Z,18.44
2023-04-10T11:44:07.202Z,18.56
2023-04-10T11:50:30.171Z,18.57
2023-04-10T11:56:50.152Z,18.67
2023-04-10T12:03:13.378Z,18.75
2023-04-10T12:09:33.147Z,18.7
2023-04-10T12:15:56.175Z,18.74
2023-04-10T12:22:16.196Z,18.79
2023-04-10T12:28:39.156Z,18.91
2023-04-10T12:34:59.374Z,18.96
2023-04-10T12:41:22.195Z,18.97
2023-04-10T12:47:42.178Z,19.07
2023-04-10T12:54:05.180Z,19.05
2023-04-10T13:00:25.194Z,19.4
2023-04-10T13:06:48.189Z,20.03
2023-04-10T13:13:08.167Z,20.36
2023-04-10T13:19:31.181Z,20.32
2023-04-10T13:25:51.186Z,19.95
2023-04-10T13:32:14.155Z,19.51
2023-04-10T13:38:34.187Z,19.32
2023-04-10T13:44:57.154Z,19.22
2023-04-10T13:51:17.176Z,19.04
2023-04-10T13:57:40.218Z,18.99
2023-04-10T14:04:00.190Z,18.98
2023-04-10T14:10:23.220Z,19.12
2023-04-10T14:16:43.223Z,19.44
2023-04-10T14:32:35.089Z,19.63
2023-04-10T14:38:55.303Z,19.59
2023-04-10T14:45:18.158Z,19.54
2023-04-10T14:51:38.221Z,19.55
2023-04-10T14:58:01.155Z,19.53
2023-04-10T15:04:21.186Z,19.53
2023-04-10T15:10:44.250Z,19.58
2023-04-10T15:17:04.180Z,19.66
2023-04-10T15:23:27.182Z,19.6
2023-04-10T15:29:47.179Z,19.5
2023-04-10T15:36:10.197Z,19.32
2023-04-10T15:42:30.180Z,19.07
2023-04-10T15:48:53.189Z,18.84
2023-04-10T15:55:13.215Z,18.66
2023-04-10T16:01:36.208Z,18.4
2023-04-10T16:07:56.195Z,18.16
2023-04-10T16:14:19.281Z,17.99
2023-04-10T16:20:39.154Z,17.79
2023-04-10T16:27:02.259Z,17.64
2023-04-10T16:33:22.152Z,17.53
2023-04-10T16:39:45.164Z,17.39
2023-04-10T16:46:05.259Z,17.26
2023-04-10T16:52:28.148Z,17.12
2023-04-10T16:58:48.191Z,16.98
2023-04-10T17:05:11.184Z,16.86
2023-04-10T17:11:31.158Z,16.75
2023-04-10T17:17:54.270Z,16.62
2023-04-10T17:24:14.174Z,16.5
2023-04-10T17:30:37.272Z,16.39
2023-04-10T17:36:57.173Z,16.22
2023-04-10T17:43:20.197Z,16.05
2023-04-10T17:49:40.229Z,15.86
2023-04-10T17:56:03.178Z,15.62
2023-04-10T18:02:23.281Z,15.34
2023-04-10T18:08:46.185Z,15.09
2023-04-10T18:15:06.152Z,14.94
2023-04-10T18:21:29.212Z,14.98
2023-04-10T18:28:04.404Z,15.05
2023-04-10T18:34:12.268Z,15.1
2023-04-10T18:40:32.226Z,14.82
2023-04-10T18:47:03.672Z,14.5
2023-04-10T18:53:15.228Z,14.27
2023-04-10T18:59:38.239Z,14.11
2023-04-10T19:05:58.195Z,14.04
2023-04-10T19:12:21.212Z,13.97
2023-04-10T19:18:41.190Z,13.89
2023-04-10T19:25:04.210Z,13.77
2023-04-10T19:31:24.209Z,13.66
2023-04-10T19:37:47.242Z,13.56
2023-04-10T19:44:07.190Z,13.52
2023-04-10T19:50:30.177Z,13.53
2023-04-10T19:56:50.194Z,13.44
2023-04-10T20:13:00.041Z,13.05
2023-04-10T20:19:20.157Z,12.9
2023-04-10T20:25:43.174Z,12.8
2023-04-10T20:32:03.303Z,12.59
2023-04-10T20:38:26.142Z,12.43
2023-04-10T20:44:46.178Z,12.32
2023-04-10T20:51:09.235Z,12.26
2023-04-10T20:57:29.140Z,12.12
2023-04-10T21:03:52.241Z,11.78
2023-04-10T21:10:12.178Z,11.47
2023-04-10T21:16:35.206Z,11.28
2023-04-10T21:22:55.191Z,11.13
2023-04-10T21:29:18.219Z,11.01
2023-04-10T21:35:38.192Z,10.98
2023-04-10T21:42:01.165Z,10.98
2023-04-10T21:48:21.229Z,10.98
2023-04-10T21:54:44.261Z,10.91
2023-04-10T22:20:16.169Z,10.76
2023-04-10T22:26:36.186Z,10.71
2023-04-10T22:32:59.202Z,10.53
2023-04-10T22:39:19.230Z,10.36
2023-04-10T22:45:42.147Z,10.21
2023-04-10T22:52:02.250Z,10.14
2023-04-10T22:58:25.206Z,10.13
2023-04-10T23:04:45.233Z,10.07
2023-04-10T23:11:08.164Z,9.98
2023-04-10T23:17:28.207Z,9.93
2023-04-10T23:23:51.145Z,9.9
2023-04-10T23:30:11.214Z,9.9
2023-04-10T23:36:34.225Z,9.86
2023-04-10T23:42:54.223Z,9.83
2023-04-10T23:49:17.182Z,9.82
2023-04-10T23:55:37.190Z,9.87
